Time;durP1;ratioP1;P1;durP2;ratioP2;P2;SDS_P1;SDS_P2;PMS_P1;PMS_P2;Temp;Humidity;BMP_temperature;BMP_pressure;BME280_temperature;BME280_humidity;BME280_pressure;Samples;Min_cycle;Max_cycle;Signal;HPM_P1;HPM_P2
2022/06/11 00:02:06;;;;;;;0.00;0.00;;;16.70;77.90;;;;;;5031844;28;20049;-69
2022/06/11 00:04:38;;;;;;;0.00;0.00;;;16.60;77.80;;;;;;5042134;28;20053;-70
2022/06/11 00:07:09;;;;;;;0.00;0.00;;;16.60;77.60;;;;;;5036038;28;20104;-69
2022/06/11 00:09:36;;;;;;;0.00;0.00;;;16.60;77.60;;;;;;5031934;28;20048;-70
2022/06/11 00:12:03;;;;;;;0.00;0.00;;;16.60;77.70;;;;;;5032150;28;20901;-70
2022/06/11 00:14:30;;;;;;;0.00;0.00;;;16.60;77.60;;;;;;5030235;28;20053;-70
2022/06/11 00:16:57;;;;;;;0.00;0.00;;;16.60;77.70;;;;;;5032505;28;20068;-70
2022/06/11 00:19:23;;;;;;;0.00;0.00;;;16.60;77.80;;;;;;5032991;28;20430;-70
2022/06/11 00:21:52;;;;;;;0.05;0.05;;;16.50;77.90;;;;;;5032852;28;20053;-69
2022/06/11 00:24:19;;;;;;;0.00;0.00;;;16.50;77.80;;;;;;5031721;28;20147;-70
2022/06/11 00:26:50;;;;;;;0.10;0.10;;;16.50;77.80;;;;;;5038515;28;20041;-70
2022/06/11 00:29:18;;;;;;;0.00;0.00;;;16.50;77.80;;;;;;5056640;28;20128;-71
2022/06/11 00:31:44;;;;;;;0.00;0.00;;;16.50;77.80;;;;;;5032003;28;20052;-70
2022/06/11 00:34:11;;;;;;;0.00;0.00;;;16.50;77.80;;;;;;5032764;28;20080;-69
2022/06/11 00:36:37;;;;;;;0.00;0.00;;;16.40;77.80;;;;;;5035591;28;20781;-70
2022/06/11 00:39:05;;;;;;;0.00;0.00;;;16.40;77.70;;;;;;5031292;28;20037;-70
2022/06/11 00:41:31;;;;;;;0.00;0.00;;;16.30;77.70;;;;;;5031719;28;20104;-70
2022/06/11 00:43:57;;;;;;;0.00;0.00;;;16.30;77.90;;;;;;5031293;28;20829;-69
2022/06/11 00:46:42;;;;;;;0.00;0.00;;;16.20;78.20;;;;;;5038504;28;20444;-70
2022/06/11 00:49:28;;;;;;;0.00;0.00;;;16.10;78.10;;;;;;5044365;28;20187;-69
2022/06/11 00:52:12;;;;;;;0.00;0.00;;;16.10;78.10;;;;;;5032359;28;20056;-70
2022/06/11 00:54:41;;;;;;;0.10;0.10;;;16.10;78.00;;;;;;5031075;28;20049;-70
2022/06/11 00:57:08;;;;;;;0.00;0.00;;;16.10;78.20;;;;;;5030969;28;20494;-70
2022/06/11 00:59:40;;;;;;;0.00;0.00;;;16.10;78.30;;;;;;5030960;28;20045;-69
2022/06/11 01:02:06;;;;;;;0.00;0.00;;;16.10;78.30;;;;;;5030710;28;20042;-70
2022/06/11 01:04:47;;;;;;;0.00;0.00;;;16.00;78.40;;;;;;5030596;28;20041;-69
2022/06/11 01:07:40;;;;;;;0.00;0.00;;;16.00;78.60;;;;;;5032163;28;20096;-69
2022/06/11 01:10:09;;;;;;;0.03;0.03;;;16.00;78.70;;;;;;5031506;28;20450;-69
2022/06/11 01:13:01;;;;;;;0.40;0.25;;;16.00;78.70;;;;;;5036149;28;20045;-69
2022/06/11 01:15:29;;;;;;;;;;;15.90;78.70;;;;;;5026885;28;20056;-69
2022/06/11 01:18:39;;;;;;;0.10;0.10;;;15.90;79.30;;;;;;5030784;28;19929;-70
2022/06/11 01:21:17;;;;;;;0.00;0.00;;;15.80;79.50;;;;;;5008522;28;20049;-70
2022/06/11 01:24:04;;;;;;;0.00;0.00;;;15.70;80.20;;;;;;5031371;28;20058;-69
2022/06/11 01:26:50;;;;;;;0.00;0.00;;;15.70;80.00;;;;;;5033180;28;20101;-70
2022/06/11 01:29:26;;;;;;;0.20;0.20;;;15.70;79.80;;;;;;5023804;28;20406;-70
2022/06/11 01:32:00;;;;;;;0.00;0.00;;;15.70;80.00;;;;;;5032930;28;20049;-70
2022/06/11 01:34:55;;;;;;;0.10;0.10;;;15.70;80.10;;;;;;5034251;28;20524;-70
2022/06/11 01:37:35;;;;;;;0.00;0.00;;;15.60;79.80;;;;;;5030917;28;20506;-69
2022/06/11 01:40:05;;;;;;;0.00;0.00;;;15.60;80.10;;;;;;5035635;28;20036;-69
2022/06/11 01:42:38;;;;;;;0.00;0.00;;;15.60;80.20;;;;;;5042293;28;20041;-70
2022/06/11 01:45:14;;;;;;;0.00;0.00;;;15.60;80.60;;;;;;5030147;28;20577;-69
2022/06/11 01:47:43;;;;;;;0.10;0.10;;;15.60;80.60;;;;;;5030276;28;20513;-70
2022/06/11 01:50:10;;;;;;;0.00;0.00;;;15.60;80.70;;;;;;5031578;28;20091;-70
2022/06/11 01:52:53;;;;;;;0.00;0.00;;;15.60;80.90;;;;;;5034859;28;20072;-70
2022/06/11 01:55:49;;;;;;;0.00;0.00;;;15.60;81.30;;;;;;5030055;28;20469;-70
2022/06/11 01:58:48;;;;;;;0.38;0.38;;;15.60;81.50;;;;;;5010838;28;20504;-70
2022/06/11 02:01:45;;;;;;;0.00;0.00;;;15.60;81.40;;;;;;5024969;28;20392;-70
2022/06/11 02:04:19;;;;;;;0.00;0.00;;;15.60;81.20;;;;;;5029730;28;20056;-70
2022/06/11 02:07:14;;;;;;;0.00;0.00;;;15.60;81.20;;;;;;5029428;28;20045;-70
2022/06/11 02:09:49;;;;;;;0.20;0.20;;;15.60;81.10;;;;;;5033483;28;20119;-70
2022/06/11 02:12:31;;;;;;;0.10;0.10;;;15.60;81.90;;;;;;5034284;28;20071;-70
2022/06/11 02:15:21;;;;;;;0.00;0.00;;;15.60;82.20;;;;;;5030052;28;20064;-70
2022/06/11 02:17:51;;;;;;;0.85;0.77;;;15.60;81.90;;;;;;5029979;28;20131;-71
2022/06/11 02:20:21;;;;;;;0.00;0.00;;;15.50;82.00;;;;;;5029636;28;20053;-71
2022/06/11 02:23:06;;;;;;;0.00;0.00;;;15.50;81.60;;;;;;5030729;28;20140;-71
2022/06/11 02:25:39;;;;;;;0.00;0.00;;;15.50;81.60;;;;;;5027916;28;20049;-71
2022/06/11 02:28:11;;;;;;;0.00;0.00;;;15.50;81.60;;;;;;5028802;28;20112;-70
2022/06/11 02:30:40;;;;;;;0.00;0.00;;;15.40;81.90;;;;;;5029573;28;20045;-71
2022/06/11 02:33:09;;;;;;;0.00;0.00;;;15.40;81.80;;;;;;5030742;28;20112;-71
2022/06/11 02:35:50;;;;;;;1.15;1.08;;;15.40;81.80;;;;;;5032308;28;20090;-71
2022/06/11 02:38:19;;;;;;;0.10;0.10;;;15.40;81.90;;;;;;5029075;28;20038;-70
2022/06/11 02:40:54;;;;;;;0.00;0.00;;;15.40;81.50;;;;;;5028184;28;20049;-70
2022/06/11 02:43:20;;;;;;;0.00;0.00;;;15.30;81.90;;;;;;5036416;28;20080;-70
2022/06/11 02:45:46;;;;;;;0.00;0.00;;;15.40;81.90;;;;;;5028856;28;20041;-70
2022/06/11 02:48:13;;;;;;;4.47;1.65;;;15.30;81.80;;;;;;5029455;28;20041;-70
2022/06/11 02:50:40;;;;;;;0.88;0.80;;;15.30;82.20;;;;;;5029466;28;20541;-70
2022/06/11 02:53:07;;;;;;;0.30;0.30;;;15.30;82.20;;;;;;5028890;28;20056;-70
2022/06/11 02:55:34;;;;;;;0.32;0.32;;;15.30;82.20;;;;;;5031721;28;20053;-70
2022/06/11 02:58:00;;;;;;;0.00;0.00;;;15.30;82.40;;;;;;5029251;28;20171;-71
2022/06/11 03:00:31;;;;;;;0.00;0.00;;;15.30;82.60;;;;;;5028357;28;20535;-72
2022/06/11 03:02:58;;;;;;;0.00;0.00;;;15.30;82.60;;;;;;5029821;28;20482;-71
2022/06/11 03:05:28;;;;;;;0.05;0.05;;;15.30;82.60;;;;;;5037068;28;20077;-71
2022/06/11 03:07:54;;;;;;;0.00;0.00;;;15.30;82.50;;;;;;5031653;28;20030;-71
2022/06/11 03:10:22;;;;;;;0.20;0.20;;;15.30;82.50;;;;;;5029056;28;20140;-71
2022/06/11 03:12:49;;;;;;;0.10;0.10;;;15.30;82.60;;;;;;5028920;28;20053;-70
2022/06/11 03:15:16;;;;;;;0.00;0.00;;;15.30;82.60;;;;;;5041078;28;20042;-70
2022/06/11 03:17:42;;;;;;;0.10;0.10;;;15.30;82.50;;;;;;5028579;28;20033;-70
2022/06/11 03:20:09;;;;;;;0.00;0.00;;;15.30;82.30;;;;;;5029165;28;20529;-71
2022/06/11 03:22:35;;;;;;;0.20;0.20;;;15.30;82.20;;;;;;5028418;28;20494;-71
2022/06/11 03:25:00;;;;;;;0.25;0.25;;;15.30;82.50;;;;;;5040660;28;20040;-71
2022/06/11 03:27:27;;;;;;;0.00;0.00;;;15.30;82.70;;;;;;5029833;28;20041;-71
2022/06/11 03:29:52;;;;;;;0.00;0.00;;;15.30;82.90;;;;;;5028814;28;20107;-71
2022/06/11 03:32:19;;;;;;;0.00;0.00;;;15.30;82.90;;;;;;5028788;28;20510;-71
2022/06/11 03:34:45;;;;;;;0.17;0.17;;;15.30;82.90;;;;;;5034706;28;20116;-71
2022/06/11 03:37:12;;;;;;;0.00;0.00;;;15.30;83.40;;;;;;5028366;28;20577;-71
2022/06/11 03:39:38;;;;;;;0.00;0.00;;;15.30;83.10;;;;;;5041554;28;20037;-71
2022/06/11 03:42:04;;;;;;;42.85;1.17;;;15.30;83.10;;;;;;5028896;28;20046;-71
2022/06/11 03:44:30;;;;;;;1.08;1.08;;;15.30;83.00;;;;;;5038733;28;20053;-71
2022/06/11 03:46:56;;;;;;;0.00;0.00;;;15.20;83.10;;;;;;5031378;28;20033;-71
2022/06/11 03:49:22;;;;;;;0.82;0.80;;;15.20;83.60;;;;;;5028635;28;20069;-71
2022/06/11 03:51:48;;;;;;;0.10;0.10;;;15.20;83.90;;;;;;5028621;28;20157;-71
2022/06/11 03:54:15;;;;;;;0.00;0.00;;;15.20;83.90;;;;;;5032593;28;20162;-71
2022/06/11 03:56:42;;;;;;;0.00;0.00;;;15.20;83.70;;;;;;5033396;28;20077;-71
2022/06/11 03:59:08;;;;;;;0.68;0.68;;;15.20;83.70;;;;;;5028525;28;20046;-70
2022/06/11 04:01:34;;;;;;;5.78;1.80;;;15.30;83.80;;;;;;5030272;28;20034;-71
2022/06/11 04:04:06;;;;;;;0.05;0.05;;;15.20;84.40;;;;;;5029860;28;20530;-70
2022/06/11 04:06:38;;;;;;;0.20;0.20;;;15.20;84.40;;;;;;5029085;28;20048;-71
2022/06/11 04:09:06;;;;;;;;;;;15.20;84.30;;;;;;5028504;28;20045;-70
2022/06/11 04:11:32;;;;;;;0.00;0.00;;;15.20;84.30;;;;;;5028282;28;20078;-71
2022/06/11 04:13:58;;;;;;;0.00;0.00;;;15.20;84.20;;;;;;5028379;28;20052;-72
2022/06/11 04:16:36;;;;;;;0.00;0.00;;;15.20;84.50;;;;;;5027976;28;20421;-72
2022/06/11 04:19:05;;;;;;;0.20;0.20;;;15.20;84.60;;;;;;5027515;28;20042;-67
2022/06/11 04:21:33;;;;;;;0.00;0.00;;;15.30;84.40;;;;;;5027715;28;20087;-68
2022/06/11 04:24:00;;;;;;;0.32;0.32;;;15.30;84.50;;;;;;5028305;28;20053;-67
2022/06/11 04:26:33;;;;;;;0.00;0.00;;;15.30;84.50;;;;;;5029400;28;20049;-67
2022/06/11 04:28:59;;;;;;;0.00;0.00;;;15.30;84.80;;;;;;5032482;28;20037;-67
2022/06/11 04:31:26;;;;;;;0.00;0.00;;;15.30;85.00;;;;;;5032912;28;20076;-72
2022/06/11 04:33:52;;;;;;;0.20;0.20;;;15.30;84.90;;;;;;5034332;28;20053;-72
2022/06/11 04:36:20;;;;;;;0.00;0.00;;;15.30;85.00;;;;;;5032341;28;20060;-71
2022/06/11 04:38:46;;;;;;;0.00;0.00;;;15.30;85.00;;;;;;5033413;28;20132;-71
2022/06/11 04:41:12;;;;;;;0.00;0.00;;;15.30;85.10;;;;;;5032178;28;20554;-71
2022/06/11 04:43:38;;;;;;;2.67;1.20;;;15.30;85.10;;;;;;5024991;28;20050;-71
2022/06/11 04:46:04;;;;;;;0.00;0.00;;;15.40;85.20;;;;;;5029686;28;20037;-72
2022/06/11 04:48:31;;;;;;;0.00;0.00;;;15.40;85.20;;;;;;5030284;28;20898;-71
2022/06/11 04:50:57;;;;;;;0.28;0.25;;;15.40;84.80;;;;;;5031170;28;20053;-71
2022/06/11 04:53:23;;;;;;;0.00;0.00;;;15.40;84.90;;;;;;5030819;28;20053;-71
2022/06/11 04:55:49;;;;;;;0.00;0.00;;;15.40;85.10;;;;;;5029895;28;20107;-72
2022/06/11 04:58:15;;;;;;;0.50;0.50;;;15.40;85.50;;;;;;5029076;28;20091;-72
2022/06/11 05:00:41;;;;;;;0.93;0.60;;;15.40;85.50;;;;;;5033273;28;20052;-71
2022/06/11 05:03:06;;;;;;;0.00;0.00;;;15.40;85.60;;;;;;5030560;28;20057;-71
2022/06/11 05:05:32;;;;;;;0.00;0.00;;;15.40;85.60;;;;;;5042206;28;20049;-71
2022/06/11 05:07:59;;;;;;;0.32;0.32;;;15.50;85.60;;;;;;5036339;28;20053;-72
2022/06/11 05:10:26;;;;;;;0.00;0.00;;;15.60;85.90;;;;;;5038941;28;20050;-72
2022/06/11 05:12:52;;;;;;;0.00;0.00;;;15.60;85.90;;;;;;5029605;28;20049;-71
2022/06/11 05:15:18;;;;;;;0.00;0.00;;;15.60;86.00;;;;;;5013017;28;20041;-71
2022/06/11 05:17:44;;;;;;;0.00;0.00;;;15.50;86.10;;;;;;5029861;28;20045;-72
2022/06/11 05:20:11;;;;;;;0.00;0.00;;;15.60;86.20;;;;;;5035038;28;20068;-72
2022/06/11 05:22:38;;;;;;;0.52;0.52;;;15.60;86.10;;;;;;5035027;28;20053;-72
2022/06/11 05:25:05;;;;;;;0.03;0.03;;;15.60;86.20;;;;;;5030409;28;20042;-72
2022/06/11 05:27:30;;;;;;;0.10;0.10;;;15.60;86.20;;;;;;5029986;28;20065;-72
2022/06/11 05:30:03;;;;;;;0.10;0.10;;;15.70;86.20;;;;;;5030024;28;20034;-72
2022/06/11 05:32:33;;;;;;;0.20;0.20;;;15.80;85.70;;;;;;5028314;28;20506;-70
2022/06/11 05:35:00;;;;;;;0.40;0.40;;;15.80;85.80;;;;;;5030224;28;20049;-73
2022/06/11 05:37:27;;;;;;;0.45;0.45;;;15.80;85.70;;;;;;5028857;28;20076;-71
2022/06/11 05:39:53;;;;;;;0.17;0.17;;;15.80;85.60;;;;;;5029874;28;20076;-72
2022/06/11 05:42:22;;;;;;;0.00;0.00;;;15.90;85.50;;;;;;5029101;28;20073;-70
2022/06/11 05:44:48;;;;;;;0.35;0.35;;;15.90;85.50;;;;;;5029562;28;20046;-72
2022/06/11 05:47:17;;;;;;;0.00;0.00;;;16.00;85.30;;;;;;5029799;28;20111;-72
2022/06/11 05:49:46;;;;;;;0.22;0.22;;;16.00;84.80;;;;;;5030040;28;20529;-71
2022/06/11 05:52:18;;;;;;;0.63;0.63;;;16.00;84.40;;;;;;5026380;28;20053;-71
2022/06/11 05:54:46;;;;;;;0.00;0.00;;;16.00;84.40;;;;;;5029618;28;20050;-71
2022/06/11 05:57:15;;;;;;;5.60;1.75;;;16.10;84.40;;;;;;5027903;28;20514;-71
2022/06/11 05:59:45;;;;;;;0.00;0.00;;;16.10;84.40;;;;;;5030015;28;20449;-72
2022/06/11 06:02:15;;;;;;;0.00;0.00;;;16.20;84.20;;;;;;5029190;28;20552;-72
2022/06/11 06:04:41;;;;;;;0.10;0.10;;;16.20;83.80;;;;;;5028189;28;20042;-72
2022/06/11 06:07:08;;;;;;;0.00;0.00;;;16.30;84.00;;;;;;5029393;28;20041;-72
2022/06/11 06:09:35;;;;;;;0.08;0.08;;;16.30;83.50;;;;;;5033597;28;20448;-72
2022/06/11 06:12:02;;;;;;;0.70;0.70;;;16.40;82.90;;;;;;5029217;28;20049;-72
2022/06/11 06:14:27;;;;;;;0.03;0.03;;;16.40;82.80;;;;;;5037895;28;20087;-72
2022/06/11 06:16:53;;;;;;;1.20;1.15;;;16.40;82.70;;;;;;5038272;28;20072;-73
2022/06/11 06:19:19;;;;;;;0.00;0.00;;;16.40;82.70;;;;;;5040353;28;20501;-72
2022/06/11 06:21:44;;;;;;;0.10;0.10;;;16.40;82.80;;;;;;5037054;28;20042;-72
2022/06/11 06:24:10;;;;;;;0.20;0.20;;;16.40;82.70;;;;;;5029746;28;20149;-73
2022/06/11 06:26:36;;;;;;;0.22;0.22;;;16.50;82.50;;;;;;5011325;28;20053;-73
2022/06/11 06:29:03;;;;;;;0.00;0.00;;;16.50;82.50;;;;;;5039556;28;20068;-71
2022/06/11 06:31:29;;;;;;;0.30;0.30;;;16.50;82.10;;;;;;5043321;28;20049;-71
2022/06/11 06:34:00;;;;;;;0.00;0.00;;;16.50;81.30;;;;;;5029524;28;20128;-72
2022/06/11 06:36:27;;;;;;;0.00;0.00;;;16.50;81.60;;;;;;5029379;28;20080;-71
2022/06/11 06:38:53;;;;;;;0.00;0.00;;;16.50;81.10;;;;;;5029273;28;20053;-72
2022/06/11 06:41:19;;;;;;;0.00;0.00;;;16.60;81.00;;;;;;5028246;28;20517;-72
2022/06/11 06:43:45;;;;;;;0.05;0.05;;;16.60;80.90;;;;;;5031841;28;20053;-71
2022/06/11 06:46:11;;;;;;;0.00;0.00;;;16.60;81.20;;;;;;5033886;28;20049;-72
2022/06/11 06:48:37;;;;;;;0.60;0.40;;;16.60;81.10;;;;;;5028852;28;20053;-71
2022/06/11 06:51:03;;;;;;;0.10;0.10;;;16.60;80.70;;;;;;5028666;28;20375;-71
2022/06/11 06:53:29;;;;;;;2.25;0.63;;;16.60;80.20;;;;;;5028668;28;20071;-71
2022/06/11 06:55:55;;;;;;;0.50;0.50;;;16.70;80.30;;;;;;5045692;28;20049;-71
2022/06/11 06:58:21;;;;;;;0.10;0.10;;;16.70;79.70;;;;;;5028628;28;20581;-71
2022/06/11 07:00:47;;;;;;;8.80;3.85;;;16.80;80.00;;;;;;5028777;28;20037;-71
2022/06/11 07:03:14;;;;;;;0.00;0.00;;;16.80;79.30;;;;;;5028860;28;20449;-71
2022/06/11 07:05:40;;;;;;;16.20;1.48;;;16.90;79.50;;;;;;5031829;28;20045;-72
2022/06/11 07:08:06;;;;;;;0.17;0.17;;;17.00;78.40;;;;;;5034526;28;20045;-71
2022/06/11 07:10:33;;;;;;;0.30;0.30;;;17.10;78.10;;;;;;5027792;28;20049;-71
2022/06/11 07:13:00;;;;;;;0.20;0.20;;;17.10;77.90;;;;;;5027694;28;20121;-71
2022/06/11 07:15:27;;;;;;;3.83;1.58;;;17.10;77.90;;;;;;5028757;28;20044;-71
2022/06/11 07:17:58;;;;;;;1.00;0.63;;;17.20;77.50;;;;;;5028575;28;20119;-69
2022/06/11 07:20:27;;;;;;;0.00;0.00;;;17.20;77.20;;;;;;5028195;28;20052;-71
2022/06/11 07:23:04;;;;;;;2.08;0.55;;;17.30;76.00;;;;;;5029078;28;20110;-70
2022/06/11 07:25:30;;;;;;;0.00;0.00;;;17.20;76.20;;;;;;5027412;28;20133;-70
2022/06/11 07:28:05;;;;;;;0.00;0.00;;;17.30;76.60;;;;;;5022805;28;20128;-70
2022/06/11 07:30:34;;;;;;;0.00;0.00;;;17.30;75.80;;;;;;5027321;28;20092;-70
2022/06/11 07:33:05;;;;;;;0.00;0.00;;;17.30;75.80;;;;;;5028688;28;20190;-71
2022/06/11 07:35:34;;;;;;;0.00;0.00;;;17.20;75.70;;;;;;5025271;28;20119;-71
2022/06/11 07:37:59;;;;;;;8.30;0.90;;;17.30;76.00;;;;;;5027098;28;20057;-71
2022/06/11 07:40:25;;;;;;;1.60;1.20;;;17.30;74.30;;;;;;5028352;28;20038;-69
2022/06/11 07:42:51;;;;;;;0.00;0.00;;;17.30;75.60;;;;;;5027654;28;20045;-69
2022/06/11 07:45:17;;;;;;;1.20;1.10;;;17.40;75.00;;;;;;5027710;28;20410;-68
2022/06/11 07:47:55;;;;;;;0.52;0.52;;;17.50;75.10;;;;;;5028437;28;20051;-68
2022/06/11 07:50:30;;;;;;;0.00;0.00;;;17.50;75.70;;;;;;5028197;28;20073;-68
2022/06/11 07:52:56;;;;;;;0.63;0.63;;;17.50;74.80;;;;;;5028452;28;20049;-68
2022/06/11 07:55:22;;;;;;;0.20;0.20;;;17.50;74.90;;;;;;5028116;28;20043;-68
2022/06/11 07:57:48;;;;;;;0.00;0.00;;;17.60;74.00;;;;;;5027594;28;20582;-68
2022/06/11 08:00:21;;;;;;;0.00;0.00;;;17.60;74.70;;;;;;5026969;28;20045;-68
2022/06/11 08:02:47;;;;;;;0.00;0.00;;;17.60;74.20;;;;;;5037052;28;20514;-69
2022/06/11 08:05:13;;;;;;;0.55;0.55;;;17.60;71.60;;;;;;5016063;28;20753;-68
2022/06/11 08:07:38;;;;;;;0.10;0.10;;;17.60;71.40;;;;;;5032436;28;20137;-69
2022/06/11 08:10:05;;;;;;;0.20;0.20;;;17.60;71.70;;;;;;5038582;28;20055;-69
2022/06/11 08:12:30;;;;;;;0.00;0.00;;;17.60;72.80;;;;;;5036091;28;20080;-70
2022/06/11 08:14:59;;;;;;;0.00;0.00;;;17.70;72.80;;;;;;5032249;28;20498;-68
2022/06/11 08:17:26;;;;;;;0.10;0.10;;;17.80;72.20;;;;;;5047112;28;20144;-68
2022/06/11 08:19:52;;;;;;;0.20;0.20;;;17.90;70.70;;;;;;5040059;28;20481;-68
2022/06/11 08:22:19;;;;;;;0.00;0.00;;;17.90;69.10;;;;;;5043570;28;20056;-68
2022/06/11 08:24:45;;;;;;;0.13;0.13;;;17.80;70.80;;;;;;5034369;28;20045;-67
2022/06/11 08:27:10;;;;;;;0.00;0.00;;;17.80;70.90;;;;;;5037535;28;20037;-66
2022/06/11 08:29:36;;;;;;;0.08;0.08;;;18.00;72.30;;;;;;5033742;28;20049;-68
2022/06/11 08:32:01;;;;;;;0.00;0.00;;;18.10;71.00;;;;;;5038293;28;20037;-67
2022/06/11 08:34:27;;;;;;;0.10;0.10;;;18.00;68.10;;;;;;5037360;28;20526;-68
2022/06/11 08:36:53;;;;;;;0.00;0.00;;;18.00;67.90;;;;;;5033463;28;20051;-67
2022/06/11 08:39:18;;;;;;;0.20;0.20;;;17.90;67.60;;;;;;5031844;28;20088;-67
2022/06/11 08:41:44;;;;;;;0.70;0.70;;;18.00;69.40;;;;;;5031408;28;20094;-66
2022/06/11 08:44:12;;;;;;;0.57;0.57;;;18.00;68.30;;;;;;5041925;28;20909;-66
2022/06/11 08:46:41;;;;;;;0.10;0.10;;;18.00;68.00;;;;;;5032480;28;20123;-67
2022/06/11 08:49:11;;;;;;;0.28;0.28;;;18.10;68.70;;;;;;5032984;28;20080;-67
2022/06/11 08:51:48;;;;;;;0.15;0.15;;;18.10;65.20;;;;;;5029630;28;20090;-67
2022/06/11 08:54:35;;;;;;;0.10;0.10;;;18.10;65.80;;;;;;5042866;28;20494;-68
2022/06/11 08:57:38;;;;;;;0.22;0.22;;;18.00;66.50;;;;;;5027778;28;20037;-67
2022/06/11 09:00:07;;;;;;;0.05;0.05;;;18.10;66.70;;;;;;5047164;28;20048;-68
2022/06/11 09:02:38;;;;;;;0.00;0.00;;;18.10;68.10;;;;;;5049664;28;20405;-69
2022/06/11 09:05:27;;;;;;;0.00;0.00;;;18.20;67.80;;;;;;5039891;28;20045;-69
2022/06/11 09:07:52;;;;;;;0.10;0.10;;;18.30;66.30;;;;;;5038481;28;20045;-68
2022/06/11 09:10:30;;;;;;;0.00;0.00;;;18.30;66.60;;;;;;5011379;28;20056;-68
2022/06/11 09:13:17;;;;;;;0.00;0.00;;;18.30;65.70;;;;;;5027397;28;20049;-68
2022/06/11 09:15:55;;;;;;;0.00;0.00;;;18.30;65.70;;;;;;5031612;28;20045;-69
2022/06/11 09:18:27;;;;;;;0.00;0.00;;;18.30;64.40;;;;;;5035143;28;20079;-67
2022/06/11 09:21:11;;;;;;;;;;;18.30;64.60;;;;;;5029018;28;20068;-67
2022/06/11 09:24:03;;;;;;;0.22;0.22;;;18.30;64.20;;;;;;5031344;28;19921;-67
2022/06/11 09:26:43;;;;;;;0.45;0.45;;;18.40;65.40;;;;;;5035405;28;20052;-67
2022/06/11 09:29:24;;;;;;;0.10;0.10;;;18.50;65.40;;;;;;5047252;28;20438;-67
2022/06/11 09:32:00;;;;;;;0.10;0.10;;;18.50;66.60;;;;;;5030276;28;20037;-67
2022/06/11 09:34:43;;;;;;;0.00;0.00;;;18.60;65.90;;;;;;5031825;28;20115;-67
2022/06/11 09:37:21;;;;;;;1.17;0.75;;;18.60;65.10;;;;;;5029050;28;20128;-67
2022/06/11 09:40:01;;;;;;;0.00;0.00;;;18.60;62.80;;;;;;5030146;28;20041;-67
2022/06/11 09:42:54;;;;;;;0.00;0.00;;;18.60;64.30;;;;;;5022298;28;20124;-68
2022/06/11 09:45:23;;;;;;;0.30;0.30;;;18.60;61.40;;;;;;5028860;28;20069;-67
2022/06/11 09:48:00;;;;;;;0.00;0.00;;;18.60;62.00;;;;;;5027262;28;20045;-67
2022/06/11 09:50:35;;;;;;;0.00;0.00;;;18.70;61.10;;;;;;5028988;28;20079;-67
2022/06/11 09:53:34;;;;;;;0.00;0.00;;;18.70;61.50;;;;;;5040763;28;20052;-67
2022/06/11 09:56:14;;;;;;;0.00;0.00;;;18.80;62.40;;;;;;5024980;28;20044;-68
2022/06/11 09:58:56;;;;;;;0.00;0.00;;;18.90;62.00;;;;;;5031830;28;20399;-67
2022/06/11 10:01:31;;;;;;;0.65;0.65;;;18.90;61.90;;;;;;5044366;28;20559;-67
2022/06/11 10:04:07;;;;;;;0.08;0.08;;;18.90;60.60;;;;;;5031156;28;20401;-66
2022/06/11 10:06:46;;;;;;;0.00;0.00;;;18.80;61.80;;;;;;5029682;28;20060;-67
2022/06/11 10:09:21;;;;;;;0.00;0.00;;;18.90;62.40;;;;;;5030717;28;20164;-67
2022/06/11 10:11:58;;;;;;;0.00;0.00;;;19.00;62.40;;;;;;5033883;28;20061;-67
2022/06/11 10:14:41;;;;;;;1.02;0.88;;;18.90;60.00;;;;;;5029144;28;20176;-68
2022/06/11 10:17:19;;;;;;;0.52;0.52;;;18.90;59.70;;;;;;5032169;28;20045;-67
2022/06/11 10:20:21;;;;;;;5.65;1.45;;;19.00;59.50;;;;;;5033077;28;20094;-67
2022/06/11 10:22:54;;;;;;;0.22;0.22;;;19.10;61.20;;;;;;5025579;28;20034;-67
2022/06/11 10:25:32;;;;;;;0.00;0.00;;;19.10;60.30;;;;;;5028353;28;20053;-67
2022/06/11 10:28:15;;;;;;;0.00;0.00;;;19.00;59.80;;;;;;5031014;28;20107;-67
2022/06/11 10:30:44;;;;;;;0.00;0.00;;;19.10;61.50;;;;;;5028732;28;20120;-67
2022/06/11 10:33:17;;;;;;;0.08;0.08;;;19.10;58.20;;;;;;5030511;28;20049;-67
2022/06/11 10:35:52;;;;;;;0.00;0.00;;;19.20;59.90;;;;;;5033697;28;20096;-68
2022/06/11 10:38:40;;;;;;;0.15;0.15;;;19.30;61.10;;;;;;5043436;28;20056;-67
2022/06/11 10:41:11;;;;;;;0.00;0.00;;;19.30;61.40;;;;;;5042388;28;20896;-67
2022/06/11 10:43:51;;;;;;;0.10;0.10;;;19.40;59.80;;;;;;5029533;28;20077;-67
2022/06/11 10:46:17;;;;;;;0.13;0.10;;;19.40;59.00;;;;;;5029924;28;20037;-68
2022/06/11 10:48:44;;;;;;;3.05;1.85;;;19.30;58.80;;;;;;5034641;28;20549;-68
2022/06/11 10:51:27;;;;;;;0.10;0.10;;;19.20;58.90;;;;;;5040385;28;20041;-67
2022/06/11 10:54:21;;;;;;;0.32;0.32;;;19.30;60.50;;;;;;5029267;28;20070;-68
2022/06/11 10:57:12;;;;;;;0.00;0.00;;;19.40;61.00;;;;;;5029585;28;20050;-69
2022/06/11 10:59:50;;;;;;;0.10;0.10;;;19.40;57.80;;;;;;5029890;28;20038;-68
2022/06/11 11:02:19;;;;;;;0.00;0.00;;;19.40;57.60;;;;;;5029120;28;20088;-68
2022/06/11 11:04:54;;;;;;;3.72;1.25;;;19.50;58.20;;;;;;5025464;28;20564;-68
2022/06/11 11:07:20;;;;;;;0.00;0.00;;;19.50;57.90;;;;;;5031606;28;20541;-69
2022/06/11 11:09:47;;;;;;;0.90;0.80;;;19.60;58.10;;;;;;5032228;28;20099;-68
2022/06/11 11:12:23;;;;;;;0.00;0.00;;;19.60;55.90;;;;;;5032139;28;20044;-69
2022/06/11 11:15:02;;;;;;;0.00;0.00;;;19.60;58.00;;;;;;5031970;28;20067;-69
2022/06/11 11:17:31;;;;;;;0.10;0.10;;;19.50;56.40;;;;;;5021209;28;20085;-68
2022/06/11 11:20:30;;;;;;;0.00;0.00;;;19.50;56.60;;;;;;5027464;28;20044;-68
2022/06/11 11:23:02;;;;;;;0.40;0.40;;;19.50;58.10;;;;;;5034651;28;20850;-69
2022/06/11 11:25:46;;;;;;;0.00;0.00;;;19.60;59.20;;;;;;5020711;28;20081;-69
2022/06/11 11:28:29;;;;;;;0.00;0.00;;;19.60;58.60;;;;;;5027457;28;20092;-68
2022/06/11 11:31:03;;;;;;;0.00;0.00;;;19.60;58.20;;;;;;5035333;28;20547;-69
2022/06/11 11:33:33;;;;;;;0.10;0.10;;;19.60;58.50;;;;;;5027820;28;20615;-69
2022/06/11 11:36:22;;;;;;;0.00;0.00;;;19.60;60.10;;;;;;5031414;28;20049;-69
2022/06/11 11:39:08;;;;;;;0.00;0.00;;;19.60;60.10;;;;;;5047379;28;20425;-69
2022/06/11 11:41:37;;;;;;;0.43;0.43;;;19.60;60.30;;;;;;5038108;28;20053;-69
2022/06/11 11:44:02;;;;;;;0.00;0.00;;;19.70;59.40;;;;;;5031919;28;20049;-68
2022/06/11 11:46:34;;;;;;;0.00;0.00;;;19.70;60.00;;;;;;5029896;28;20375;-68
2022/06/11 11:49:02;;;;;;;0.00;0.00;;;19.70;60.30;;;;;;5012376;28;20061;-69
2022/06/11 11:51:35;;;;;;;0.10;0.10;;;19.70;60.00;;;;;;5027854;28;20073;-69
2022/06/11 11:54:25;;;;;;;0.20;0.20;;;19.70;59.80;;;;;;5033588;28;20051;-69
2022/06/11 11:56:55;;;;;;;0.00;0.00;;;19.80;59.40;;;;;;5029233;28;20468;-68
2022/06/11 11:59:28;;;;;;;0.28;0.28;;;19.90;59.80;;;;;;5037620;28;20091;-68
2022/06/11 12:02:13;;;;;;;0.00;0.00;;;19.90;59.30;;;;;;5031531;28;20375;-69
2022/06/11 12:05:09;;;;;;;1.55;1.00;;;19.90;58.20;;;;;;5032654;28;20076;-69
2022/06/11 12:07:40;;;;;;;0.00;0.00;;;19.80;60.10;;;;;;5031253;28;20818;-69
2022/06/11 12:10:27;;;;;;;0.00;0.00;;;19.90;59.60;;;;;;5038423;28;20049;-68
2022/06/11 12:12:54;;;;;;;0.00;0.00;;;19.80;59.80;;;;;;5046961;28;20486;-68
2022/06/11 12:15:32;;;;;;;0.00;0.00;;;19.80;60.50;;;;;;5052081;28;20583;-67
2022/06/11 12:18:30;;;;;;;0.00;0.00;;;19.70;58.60;;;;;;5041547;28;20034;-68
2022/06/11 12:21:02;;;;;;;0.00;0.00;;;19.80;60.40;;;;;;5030331;28;20060;-67
2022/06/11 12:23:34;;;;;;;0.00;0.00;;;20.00;59.80;;;;;;5031064;28;20039;-67
2022/06/11 12:26:23;;;;;;;;;;;20.00;59.40;;;;;;5047265;28;20048;-68
2022/06/11 12:28:59;;;;;;;0.20;0.20;;;20.00;58.60;;;;;;5049164;28;20436;-68
2022/06/11 12:31:27;;;;;;;0.85;0.85;;;20.10;59.60;;;;;;5031498;28;20498;-68
2022/06/11 12:33:53;;;;;;;0.00;0.00;;;20.10;59.80;;;;;;5012453;28;20104;-68
2022/06/11 12:36:31;;;;;;;0.00;0.00;;;20.20;59.90;;;;;;5020157;28;20041;-68
2022/06/11 12:39:11;;;;;;;0.00;0.00;;;20.20;58.40;;;;;;5032638;28;20103;-68
2022/06/11 12:42:01;;;;;;;0.00;0.00;;;20.20;58.80;;;;;;5031826;28;20037;-69
2022/06/11 12:44:56;;;;;;;0.00;0.00;;;20.20;59.10;;;;;;5035204;28;20041;-68
2022/06/11 12:48:01;;;;;;;0.00;0.00;;;20.30;59.20;;;;;;5025792;28;20056;-71
2022/06/11 12:50:50;;;;;;;0.05;0.05;;;20.40;58.50;;;;;;5035755;28;20091;-70
2022/06/11 12:53:37;;;;;;;0.13;0.13;;;20.50;59.40;;;;;;5031539;28;20051;-70
2022/06/11 12:56:24;;;;;;;0.10;0.10;;;20.50;57.50;;;;;;5030751;28;20095;-71
2022/06/11 12:59:15;;;;;;;0.00;0.00;;;20.50;58.30;;;;;;5034033;28;20041;-70
2022/06/11 13:02:13;;;;;;;0.00;0.00;;;20.60;60.10;;;;;;5031363;28;20049;-71
2022/06/11 13:05:03;;;;;;;0.13;0.13;;;20.60;59.30;;;;;;5031395;28;20064;-71
2022/06/11 13:07:38;;;;;;;1.00;0.60;;;20.60;60.10;;;;;;5015670;28;20179;-71
2022/06/11 13:10:42;;;;;;;4.28;1.65;;;20.50;60.90;;;;;;5032974;28;20080;-71
2022/06/11 13:13:47;;;;;;;0.00;0.00;;;20.60;59.80;;;;;;5031554;28;20045;-71
2022/06/11 13:16:40;;;;;;;0.20;0.20;;;20.70;59.90;;;;;;5010219;28;20503;-71
2022/06/11 13:19:13;;;;;;;0.32;0.32;;;21.00;60.80;;;;;;5033442;28;20109;-71